Аэропорт: Актобе. Актобе

ICAO: UATT

METAR:
2018/11/21 18:30
UATT 211830Z 23005MPS 9999 -SN OVC032 M04/M04 Q1005 R31/820245 NOSIG RMK QFE734/0979
METAR:
2018/11/21 18:18
TAF TAF UATT 211700Z 2118/2218 28009MPS 3000 -SHSN BR SCT005 BKN010CB TXM01/2211Z TNM05/2201Z 
      TEMPO 2118/2205 0500 FZFG VV002